createdAt,value
2019-06-01T00:01:31.860Z,7.23
2019-06-01T00:04:01.822Z,5.63
2019-06-01T00:06:31.847Z,5.80
2019-06-01T00:09:02.943Z,5.17
2019-06-01T00:11:32.080Z,6.23
2019-06-01T00:14:03.738Z,5.53
2019-06-01T00:16:33.018Z,7.00
2019-06-01T00:19:03.724Z,7.23
2019-06-01T00:21:32.880Z,6.07
2019-06-01T00:24:02.176Z,5.80
2019-06-01T00:26:32.419Z,5.53
2019-06-01T00:29:04.040Z,8.10
2019-06-01T00:31:33.196Z,9.07
2019-06-01T00:34:03.212Z,8.40
2019-06-01T00:36:32.367Z,6.90
2019-06-01T00:39:02.708Z,8.20
2019-06-01T00:41:31.886Z,6.97
2019-06-01T00:44:01.128Z,6.73
2019-06-01T00:46:33.336Z,5.60
2019-06-01T00:49:02.496Z,7.30
2019-06-01T00:51:31.769Z,8.00
2019-06-01T00:54:02.881Z,6.60
2019-06-01T00:56:33.171Z,8.97
2019-06-01T00:59:04.719Z,7.20
2019-06-01T01:01:33.919Z,9.63
2019-06-01T01:04:03.077Z,9.07
2019-06-01T01:06:32.201Z,8.20
2019-06-01T01:09:06.094Z,9.13
2019-06-01T01:11:39.800Z,6.60
2019-06-01T01:14:14.841Z,7.53
2019-06-01T01:16:49.496Z,7.43
2019-06-01T01:19:18.766Z,7.03
2019-06-01T01:21:48.297Z,6.50
2019-06-01T01:24:17.439Z,8.20
2019-06-01T01:26:48.816Z,8.40
2019-06-01T01:29:22.348Z,8.10
2019-06-01T01:31:51.765Z,10.87
2019-06-01T01:34:20.853Z,7.30
2019-06-01T01:36:50.046Z,7.80
2019-06-01T01:39:22.779Z,7.87
2019-06-01T01:41:52.193Z,8.80
2019-06-01T01:44:21.620Z,6.90
2019-06-01T01:46:50.819Z,9.40
2019-06-01T01:49:19.992Z,7.50
2019-06-01T01:51:50.401Z,8.73
2019-06-01T01:54:24.587Z,7.07
2019-06-01T01:56:58.245Z,7.90
2019-06-01T01:59:29.122Z,7.07
2019-06-01T02:01:58.661Z,6.80
2019-06-01T02:04:30.053Z,9.17
2019-06-01T02:07:02.408Z,8.90
2019-06-01T02:09:34.585Z,7.23
2019-06-01T02:12:03.859Z,9.70
2019-06-01T02:14:34.142Z,9.80
2019-06-01T02:17:06.432Z,7.63
2019-06-01T02:19:37.918Z,10.20
2019-06-01T02:22:07.046Z,7.83
2019-06-01T02:24:39.727Z,8.60
2019-06-01T02:27:08.919Z,6.50
2019-06-01T02:29:38.054Z,8.13
2019-06-01T02:32:07.261Z,8.60
2019-06-01T02:34:37.981Z,10.00
2019-06-01T02:37:07.124Z,7.00
2019-06-01T02:39:36.445Z,8.93
2019-06-01T02:42:08.611Z,8.50
2019-06-01T02:44:39.036Z,9.50
2019-06-01T02:47:08.591Z,9.20
2019-06-01T02:49:38.956Z,9.70
2019-06-01T02:52:08.561Z,7.73
2019-06-01T02:54:37.743Z,8.37
2019-06-01T02:57:07.350Z,8.00
2019-06-01T02:59:39.775Z,11.30
2019-06-01T03:02:13.907Z,8.53
2019-06-01T03:04:40.788Z,8.57
2019-06-01T03:07:10.400Z,6.90
2019-06-01T03:09:43.594Z,9.50
2019-06-01T03:12:14.111Z,8.33
2019-06-01T03:14:45.470Z,6.20
2019-06-01T03:17:18.871Z,6.70
2019-06-01T03:19:49.504Z,7.43
2019-06-01T03:22:23.110Z,8.17
2019-06-01T03:24:54.070Z,9.00
2019-06-01T03:27:28.947Z,9.70
2019-06-01T03:30:00.552Z,7.40
2019-06-01T03:32:36.931Z,8.33
2019-06-01T03:35:01.023Z,8.73
2019-06-01T03:37:30.953Z,8.03
2019-06-01T03:40:01.085Z,6.73
2019-06-01T03:42:33.010Z,7.90
2019-06-01T03:45:05.547Z,8.57
2019-06-01T03:47:34.923Z,8.40
2019-06-01T03:50:04.843Z,7.77
2019-06-01T03:52:36.057Z,7.93
2019-06-01T03:55:09.913Z,11.30
2019-06-01T03:57:39.209Z,9.03
2019-06-01T04:00:12.028Z,7.80
2019-06-01T04:02:41.312Z,8.40
2019-06-01T04:05:11.539Z,10.33
2019-06-01T04:07:44.093Z,10.27
2019-06-01T04:10:16.434Z,9.60
2019-06-01T04:12:45.588Z,9.80
2019-06-01T04:15:16.804Z,11.23
2019-06-01T04:17:46.009Z,7.93
2019-06-01T04:20:15.732Z,8.80
2019-06-01T04:22:45.672Z,8.80
2019-06-01T04:25:15.376Z,7.10
2019-06-01T04:27:46.962Z,7.00
2019-06-01T04:30:17.848Z,8.17
2019-06-01T04:32:50.303Z,9.73
2019-06-01T04:35:21.126Z,7.80
2019-06-01T04:37:51.308Z,6.90
2019-06-01T04:40:22.076Z,8.20
2019-06-01T04:42:54.172Z,7.30
2019-06-01T04:45:23.380Z,7.77
2019-06-01T04:47:52.628Z,6.83
2019-06-01T04:50:24.865Z,6.77
2019-06-01T04:52:54.022Z,9.13
2019-06-01T04:55:28.461Z,7.57
2019-06-01T04:57:57.659Z,6.83
2019-06-01T05:00:28.059Z,7.17
2019-06-01T05:03:10.331Z,10.17
2019-06-01T05:05:39.994Z,7.07
2019-06-01T05:08:09.428Z,8.77
2019-06-01T05:10:41.935Z,7.33
2019-06-01T05:13:11.516Z,6.20
2019-06-01T05:15:40.823Z,6.40
2019-06-01T05:18:10.176Z,7.57
2019-06-01T05:20:39.362Z,7.23
2019-06-01T05:23:08.608Z,9.37
2019-06-01T05:25:40.381Z,7.70
2019-06-01T05:28:09.530Z,7.20
2019-06-01T05:30:42.072Z,7.03
2019-06-01T05:33:26.571Z,9.83
2019-06-01T05:35:47.982Z,6.30
2019-06-01T05:38:24.053Z,7.13
2019-06-01T05:40:54.742Z,8.00
2019-06-01T05:43:27.674Z,6.70
2019-06-01T05:45:56.824Z,5.97
2019-06-01T05:48:30.530Z,8.53
2019-06-01T05:50:57.636Z,7.73
2019-06-01T05:53:29.970Z,7.20
2019-06-01T05:56:02.811Z,7.00
2019-06-01T05:58:32.386Z,7.73
2019-06-01T06:01:08.105Z,8.90
2019-06-01T06:03:40.429Z,6.40
2019-06-01T06:06:08.352Z,6.53
2019-06-01T06:08:38.599Z,5.50
2019-06-01T06:11:14.915Z,5.53
2019-06-01T06:13:44.359Z,6.07
2019-06-01T06:16:13.846Z,7.17
2019-06-01T06:18:46.317Z,5.27
2019-06-01T06:21:20.303Z,4.80
2019-06-01T06:23:49.789Z,6.60
2019-06-01T06:26:20.491Z,5.60
2019-06-01T06:28:52.368Z,5.03
2019-06-01T06:31:21.711Z,4.43
2019-06-01T06:33:56.973Z,5.53
2019-06-01T06:36:28.227Z,6.50
2019-06-01T06:38:57.854Z,8.47
2019-06-01T06:41:31.477Z,5.17
2019-06-01T06:44:03.389Z,5.70
2019-06-01T06:46:34.177Z,4.73
2019-06-01T06:49:03.369Z,5.37
2019-06-01T06:51:32.879Z,5.20
2019-06-01T06:54:04.526Z,6.47
2019-06-01T06:56:35.470Z,3.47
2019-06-01T06:59:04.604Z,5.00
2019-06-01T07:01:33.795Z,5.27
2019-06-01T07:04:12.702Z,4.80
2019-06-01T07:06:34.991Z,4.43
2019-06-01T07:09:05.572Z,5.20
2019-06-01T07:11:35.438Z,5.50
2019-06-01T07:14:05.009Z,4.23
2019-06-01T07:16:34.436Z,3.17
2019-06-01T07:19:07.376Z,3.03
2019-06-01T07:21:38.928Z,4.80
2019-06-01T07:24:10.953Z,5.03
2019-06-01T07:26:40.350Z,4.93
2019-06-01T07:29:11.548Z,6.77
2019-06-01T07:31:46.193Z,3.90
2019-06-01T07:34:31.053Z,3.90
2019-06-01T07:36:49.609Z,3.20
2019-06-01T07:39:18.776Z,5.03
2019-06-01T07:41:49.308Z,3.07
2019-06-01T07:44:22.645Z,4.03
2019-06-01T07:46:57.982Z,3.40
2019-06-01T07:49:29.155Z,3.60
2019-06-01T07:52:12.833Z,3.23
2019-06-01T07:54:36.973Z,3.10
2019-06-01T07:57:06.090Z,4.00
2019-06-01T07:59:36.433Z,3.43
2019-06-01T08:02:05.991Z,4.47
2019-06-01T08:04:51.856Z,4.07
2019-06-01T08:07:06.322Z,3.90
2019-06-01T08:09:36.557Z,3.77
2019-06-01T08:12:07.365Z,4.10
2019-06-01T08:14:36.483Z,3.70
2019-06-01T08:17:09.281Z,4.63
2019-06-01T08:19:44.461Z,3.63
2019-06-01T08:22:14.077Z,5.03
2019-06-01T08:24:44.867Z,6.23
2019-06-01T08:27:15.198Z,2.97
2019-06-01T08:29:44.330Z,3.80
2019-06-01T08:32:17.094Z,3.10
2019-06-01T08:34:46.698Z,3.00
2019-06-01T08:37:19.074Z,3.30
2019-06-01T08:39:48.977Z,4.40
2019-06-01T08:42:18.375Z,5.63
2019-06-01T08:44:47.556Z,3.70
2019-06-01T08:47:19.685Z,4.23
2019-06-01T08:49:48.828Z,5.63
2019-06-01T08:52:18.339Z,4.40
2019-06-01T08:54:48.843Z,4.10
2019-06-01T08:57:17.961Z,4.87
2019-06-01T08:59:47.605Z,6.00
2019-06-01T09:02:17.293Z,5.20
2019-06-01T09:04:49.374Z,5.00
2019-06-01T09:07:18.689Z,4.70
2019-06-01T09:09:47.856Z,6.10
2019-06-01T09:12:18.235Z,4.00
2019-06-01T09:14:48.583Z,4.67
2019-06-01T09:17:18.916Z,3.33
2019-06-01T09:19:48.356Z,4.10
2019-06-01T09:22:23.845Z,3.53
2019-06-01T09:25:18.902Z,4.80
2019-06-01T09:27:57.022Z,4.03
2019-06-01T09:30:27.884Z,5.73
2019-06-01T09:33:06.103Z,3.53
2019-06-01T09:35:54.348Z,4.13
2019-06-01T09:38:12.822Z,5.97
2019-06-01T09:40:42.798Z,5.33
2019-06-01T09:43:15.379Z,5.63
2019-06-01T09:45:47.394Z,4.10
2019-06-01T09:48:29.977Z,3.83
2019-06-01T09:50:56.834Z,3.83
2019-06-01T09:53:28.980Z,3.77
2019-06-01T09:55:59.981Z,3.60
2019-06-01T09:58:34.858Z,3.60
2019-06-01T10:01:09.670Z,3.47
2019-06-01T10:03:39.741Z,7.20
2019-06-01T10:06:13.953Z,4.90
2019-06-01T10:08:42.506Z,3.40
2019-06-01T10:11:13.099Z,3.80
2019-06-01T10:13:46.130Z,3.97
2019-06-01T10:16:24.307Z,3.77
2019-06-01T10:18:57.423Z,7.33
2019-06-01T10:21:26.936Z,3.53
2019-06-01T10:23:56.118Z,3.43
2019-06-01T10:26:26.975Z,3.73
2019-06-01T10:28:57.397Z,3.63
2019-06-01T10:31:28.273Z,3.63
2019-06-01T10:33:57.609Z,3.60
2019-06-01T10:36:31.923Z,3.90
2019-06-01T10:39:01.543Z,3.20
2019-06-01T10:41:33.235Z,3.17
2019-06-01T10:44:04.054Z,5.43
2019-06-01T10:46:33.863Z,4.53
2019-06-01T10:49:08.274Z,3.97
2019-06-01T10:51:38.380Z,5.70
2019-06-01T10:54:07.550Z,4.80
2019-06-01T10:56:38.767Z,3.00
2019-06-01T10:59:11.992Z,4.83
2019-06-01T11:01:42.931Z,3.50
2019-06-01T11:04:13.895Z,4.10
2019-06-01T11:06:48.330Z,3.53
2019-06-01T11:09:15.492Z,4.90
2019-06-01T11:11:47.829Z,3.20
2019-06-01T11:14:17.059Z,3.30
2019-06-01T11:16:54.853Z,3.13
2019-06-01T11:19:19.428Z,3.57
2019-06-01T11:21:48.595Z,3.37
2019-06-01T11:24:24.042Z,4.03
2019-06-01T11:26:53.248Z,4.30
2019-06-01T11:29:22.493Z,4.03
2019-06-01T11:31:51.768Z,4.10
2019-06-01T11:34:25.301Z,3.13
2019-06-01T11:37:05.036Z,3.60
2019-06-01T11:39:29.171Z,3.00
2019-06-01T11:42:01.459Z,3.20
2019-06-01T11:44:30.624Z,4.33
2019-06-01T11:47:01.213Z,3.10
2019-06-01T11:49:33.251Z,3.37
2019-06-01T11:52:04.980Z,3.60
2019-06-01T11:54:35.072Z,5.07
2019-06-01T11:57:05.997Z,3.37
2019-06-01T11:59:37.300Z,3.17
2019-06-01T12:02:09.011Z,3.40
2019-06-01T12:04:39.798Z,4.87
2019-06-01T12:07:17.471Z,6.33
2019-06-01T12:09:45.980Z,4.20
2019-06-01T12:12:15.331Z,3.33
2019-06-01T12:14:44.581Z,6.40
2019-06-01T12:17:14.672Z,4.30
2019-06-01T12:19:44.796Z,4.70
2019-06-01T12:22:17.744Z,4.33
2019-06-01T12:24:47.386Z,5.07
2019-06-01T12:27:16.843Z,3.93
2019-06-01T12:29:48.273Z,2.77
2019-06-01T12:32:18.070Z,3.33
2019-06-01T12:34:50.251Z,3.60
2019-06-01T12:37:34.505Z,3.50
2019-06-01T12:39:53.837Z,3.40
2019-06-01T12:42:24.068Z,3.07
2019-06-01T12:44:55.421Z,4.30
2019-06-01T12:47:43.932Z,3.30
2019-06-01T12:50:15.240Z,3.90
2019-06-01T12:52:46.577Z,4.07
2019-06-01T12:55:19.279Z,3.40
2019-06-01T12:57:49.276Z,3.40
2019-06-01T13:00:22.520Z,5.10
2019-06-01T13:03:06.734Z,3.93
2019-06-01T13:05:25.665Z,5.13
2019-06-01T13:08:02.251Z,3.80
2019-06-01T13:10:27.025Z,3.10
2019-06-01T13:12:57.440Z,3.87
2019-06-01T13:15:28.693Z,4.00
2019-06-01T13:17:58.022Z,4.67
2019-06-01T13:20:29.006Z,3.60
2019-06-01T13:22:59.410Z,4.43
2019-06-01T13:25:30.095Z,4.13
2019-06-01T13:28:00.462Z,3.70
2019-06-01T13:30:29.711Z,3.50
2019-06-01T13:33:01.455Z,3.53
2019-06-01T13:35:32.249Z,3.27
2019-06-01T13:38:11.830Z,3.37
2019-06-01T13:40:32.497Z,2.90
2019-06-01T13:43:01.695Z,3.07
2019-06-01T13:45:30.939Z,5.83
2019-06-01T13:48:03.687Z,3.97
2019-06-01T13:50:32.844Z,3.60
2019-06-01T13:53:05.947Z,3.20
2019-06-01T13:55:36.067Z,2.60
2019-06-01T13:58:06.185Z,3.60
2019-06-01T14:00:38.387Z,3.97
2019-06-01T14:03:07.745Z,3.37
2019-06-01T14:05:37.159Z,3.53
2019-06-01T14:08:07.378Z,4.43
2019-06-01T14:10:38.934Z,3.50
2019-06-01T14:13:20.453Z,17.33
2019-06-01T14:15:51.614Z,3.73
2019-06-01T14:18:20.805Z,4.87
2019-06-01T14:20:56.841Z,4.10
2019-06-01T14:23:27.000Z,3.43
2019-06-01T14:26:01.025Z,3.47
2019-06-01T14:28:32.123Z,3.73
2019-06-01T14:31:03.779Z,3.37
2019-06-01T14:33:32.934Z,3.20
2019-06-01T14:36:02.134Z,3.30
2019-06-01T14:38:45.934Z,3.03
2019-06-01T14:41:03.023Z,3.87
2019-06-01T14:43:36.081Z,4.47
2019-06-01T14:46:05.351Z,3.67
2019-06-01T14:48:35.612Z,3.00
2019-06-01T14:51:06.492Z,2.77
2019-06-01T14:53:39.084Z,3.10
2019-06-01T14:56:08.293Z,3.63
2019-06-01T14:58:39.303Z,3.30
2019-06-01T15:01:08.459Z,8.10
2019-06-01T15:03:37.686Z,3.30
2019-06-01T15:06:07.930Z,4.93
2019-06-01T15:09:02.477Z,2.93
2019-06-01T15:11:16.676Z,4.63
2019-06-01T15:13:45.911Z,3.03
2019-06-01T15:16:16.979Z,3.90
2019-06-01T15:18:47.360Z,2.67
2019-06-01T15:21:22.080Z,3.70
2019-06-01T15:23:51.956Z,4.40
2019-06-01T15:26:25.137Z,3.47
2019-06-01T15:28:59.295Z,4.50
2019-06-01T15:31:32.104Z,4.17
2019-06-01T15:34:01.848Z,4.00
2019-06-01T15:36:36.482Z,3.27
2019-06-01T15:39:23.517Z,3.80
2019-06-01T15:41:40.560Z,3.77
2019-06-01T15:44:10.893Z,3.83
2019-06-01T15:46:40.063Z,3.13
2019-06-01T15:49:09.391Z,3.90
2019-06-01T15:51:44.575Z,3.20
2019-06-01T15:54:13.789Z,3.57
2019-06-01T15:56:45.121Z,3.43
2019-06-01T15:59:17.544Z,6.37
2019-06-01T16:02:05.931Z,4.13
2019-06-01T16:04:35.309Z,3.33
2019-06-01T16:07:05.603Z,2.73
2019-06-01T16:09:42.631Z,3.43
2019-06-01T16:12:09.424Z,3.77
2019-06-01T16:14:39.741Z,3.70
2019-06-01T16:17:13.499Z,3.50
2019-06-01T16:19:46.588Z,3.93
2019-06-01T16:22:15.684Z,4.80
2019-06-01T16:24:48.805Z,5.83
2019-06-01T16:27:19.062Z,2.87
2019-06-01T16:29:48.360Z,4.00
2019-06-01T16:32:23.683Z,3.37
2019-06-01T16:34:52.904Z,4.70
2019-06-01T16:37:23.678Z,3.63
2019-06-01T16:39:59.627Z,3.00
2019-06-01T16:42:28.880Z,3.30
2019-06-01T16:44:58.010Z,3.47
2019-06-01T16:47:28.262Z,2.80
2019-06-01T16:50:00.117Z,2.97
2019-06-01T16:52:33.887Z,3.10
2019-06-01T16:55:08.927Z,5.17
2019-06-01T16:57:38.282Z,5.17
2019-06-01T17:00:08.664Z,2.90
2019-06-01T17:02:39.145Z,4.10
2019-06-01T17:05:11.673Z,3.13
2019-06-01T17:07:43.169Z,3.03
2019-06-01T17:10:25.861Z,3.53
2019-06-01T17:12:50.545Z,3.53
2019-06-01T17:15:25.573Z,5.53
2019-06-01T17:17:54.753Z,3.87
2019-06-01T17:20:42.044Z,5.30
2019-06-01T17:23:26.311Z,4.00
2019-06-01T17:25:43.970Z,2.80
2019-06-01T17:28:13.287Z,4.20
2019-06-01T17:30:45.457Z,4.30
2019-06-01T17:33:14.587Z,3.50
2019-06-01T17:35:46.399Z,4.07
2019-06-01T17:38:15.507Z,3.57
2019-06-01T17:40:49.711Z,2.70
2019-06-01T17:43:19.311Z,4.17
2019-06-01T17:45:48.674Z,3.60
2019-06-01T17:48:25.503Z,4.00
2019-06-01T17:50:48.654Z,2.37
2019-06-01T17:53:21.505Z,2.90
2019-06-01T17:55:52.347Z,3.60
2019-06-01T17:58:21.494Z,4.33
2019-06-01T18:00:57.441Z,3.70
2019-06-01T18:03:28.629Z,6.17
2019-06-01T18:06:01.777Z,4.27
2019-06-01T18:08:30.990Z,4.00
2019-06-01T18:11:00.126Z,3.90
2019-06-01T18:13:29.359Z,2.70
2019-06-01T18:16:00.559Z,3.10
2019-06-01T18:18:32.843Z,4.00
2019-06-01T18:21:02.286Z,3.77
2019-06-01T18:23:32.461Z,4.77
2019-06-01T18:26:02.561Z,4.70
2019-06-01T18:28:35.396Z,4.67
2019-06-01T18:31:04.627Z,9.60
2019-06-01T18:33:34.098Z,11.33
2019-06-01T18:36:08.105Z,12.50
2019-06-01T18:38:37.273Z,11.80
2019-06-01T18:41:18.612Z,6.30
2019-06-01T18:43:48.553Z,5.83
2019-06-01T18:46:21.924Z,5.67
2019-06-01T18:48:51.322Z,5.73
2019-06-01T18:51:22.272Z,5.97
2019-06-01T18:53:51.421Z,5.23
2019-06-01T18:56:21.944Z,5.53
2019-06-01T18:58:51.231Z,4.13
2019-06-01T19:01:21.140Z,4.03
2019-06-01T19:03:51.557Z,4.73
2019-06-01T19:06:20.687Z,5.23
2019-06-01T19:08:49.930Z,5.63
2019-06-01T19:11:32.930Z,5.33
2019-06-01T19:13:51.653Z,6.03
2019-06-01T19:16:21.247Z,6.03
2019-06-01T19:18:52.218Z,8.10
2019-06-01T19:21:26.120Z,7.27
2019-06-01T19:23:54.846Z,6.00
2019-06-01T19:26:24.182Z,5.97
2019-06-01T19:28:56.366Z,7.70
2019-06-01T19:31:25.518Z,6.20
2019-06-01T19:33:57.126Z,5.27
2019-06-01T19:36:30.039Z,5.57
2019-06-01T19:39:01.743Z,4.30
2019-06-01T19:41:44.137Z,6.97
2019-06-01T19:44:02.368Z,5.20
2019-06-01T19:46:31.492Z,5.57
2019-06-01T19:49:00.939Z,5.60
2019-06-01T19:51:32.452Z,5.00
2019-06-01T19:54:03.050Z,5.23
2019-06-01T19:56:38.194Z,5.23
2019-06-01T19:59:11.814Z,5.20
2019-06-01T20:01:41.303Z,4.73
2019-06-01T20:04:12.459Z,7.60
2019-06-01T20:06:44.872Z,5.60
2019-06-01T20:09:15.339Z,6.30
2019-06-01T20:11:58.617Z,5.73
2019-06-01T20:14:16.431Z,4.50
2019-06-01T20:16:48.058Z,5.27
2019-06-01T20:19:17.816Z,5.60
2019-06-01T20:21:50.342Z,4.87
2019-06-01T20:24:22.789Z,6.50
2019-06-01T20:26:54.470Z,5.83
2019-06-01T20:29:24.958Z,4.70
2019-06-01T20:31:55.610Z,5.67
2019-06-01T20:34:25.087Z,4.90
2019-06-01T20:36:57.192Z,5.77
2019-06-01T20:39:28.704Z,5.30
2019-06-01T20:41:57.843Z,5.30
2019-06-01T20:44:28.219Z,5.20
2019-06-01T20:47:00.267Z,6.20
2019-06-01T20:49:31.989Z,5.70
2019-06-01T20:52:01.207Z,5.27
2019-06-01T20:54:32.155Z,4.40
2019-06-01T20:57:02.081Z,4.00
2019-06-01T20:59:32.930Z,4.63
2019-06-01T21:02:08.835Z,5.50
2019-06-01T21:04:39.202Z,4.63
2019-06-01T21:07:08.402Z,4.83
2019-06-01T21:09:38.486Z,8.17
2019-06-01T21:12:08.005Z,6.13
2019-06-01T21:14:39.127Z,5.67
2019-06-01T21:17:08.615Z,5.63
2019-06-01T21:19:39.596Z,5.63
2019-06-01T21:22:08.952Z,8.00
2019-06-01T21:24:38.052Z,6.03
2019-06-01T21:27:12.247Z,6.33
2019-06-01T21:29:43.469Z,10.73
2019-06-01T21:32:15.123Z,8.60
2019-06-01T21:34:45.527Z,9.47
2019-06-01T21:37:19.896Z,9.13
2019-06-01T21:39:49.331Z,10.27
2019-06-01T21:42:19.632Z,8.60
2019-06-01T21:44:49.424Z,8.50
2019-06-01T21:47:21.695Z,8.00
2019-06-01T21:49:52.673Z,9.70
2019-06-01T21:52:26.237Z,12.03
2019-06-01T21:54:56.891Z,11.23
2019-06-01T21:57:30.222Z,12.37
2019-06-01T21:59:59.760Z,11.50
2019-06-01T22:02:29.597Z,9.27
2019-06-01T22:05:01.088Z,7.30
2019-06-01T22:07:33.295Z,8.10
2019-06-01T22:10:02.373Z,8.90
2019-06-01T22:12:34.000Z,9.93
2019-06-01T22:15:04.888Z,8.70
2019-06-01T22:17:36.014Z,9.33
2019-06-01T22:20:10.481Z,10.77
2019-06-01T22:22:39.589Z,12.10
2019-06-01T22:25:09.178Z,11.40
2019-06-01T22:27:38.517Z,11.03
2019-06-01T22:30:08.147Z,8.30
2019-06-01T22:32:41.500Z,9.27
2019-06-01T22:35:24.653Z,8.97
2019-06-01T22:37:54.006Z,10.20
2019-06-01T22:40:25.179Z,8.43
2019-06-01T22:42:56.560Z,7.63
2019-06-01T22:45:33.960Z,8.37
2019-06-01T22:48:07.456Z,7.43
2019-06-01T22:50:37.347Z,7.60
2019-06-01T22:53:10.117Z,8.20
2019-06-01T22:55:40.496Z,9.77
2019-06-01T22:58:09.590Z,9.30
2019-06-01T23:00:39.145Z,11.73
2019-06-01T23:03:08.271Z,9.50
2019-06-01T23:05:41.554Z,10.47
2019-06-01T23:08:11.406Z,11.30
2019-06-01T23:10:40.755Z,10.63
2019-06-01T23:13:10.353Z,10.90
2019-06-01T23:15:39.475Z,11.20
2019-06-01T23:18:08.618Z,11.30
2019-06-01T23:20:37.707Z,9.03
2019-06-01T23:23:06.785Z,9.33
2019-06-01T23:25:36.250Z,11.10
2019-06-01T23:28:08.623Z,10.27
2019-06-01T23:30:42.347Z,10.80
2019-06-01T23:33:11.486Z,9.90
2019-06-01T23:36:05.018Z,11.77
2019-06-01T23:38:34.164Z,9.93
2019-06-01T23:41:05.640Z,9.50
2019-06-01T23:43:37.241Z,11.40
2019-06-01T23:46:06.740Z,10.17
2019-06-01T23:48:38.355Z,9.73
2019-06-01T23:51:07.463Z,8.70
2019-06-01T23:53:36.578Z,11.53
2019-06-01T23:56:07.340Z,10.40
2019-06-01T23:58:36.551Z,10.70
